createdAt,value
2017-08-09T00:01:37.928Z,100286
2017-08-09T00:06:41.149Z,100292
2017-08-09T00:11:44.340Z,100302
2017-08-09T00:16:47.548Z,100313
2017-08-09T00:21:50.728Z,100298
2017-08-09T00:26:53.899Z,100305
2017-08-09T00:31:57.097Z,100303
2017-08-09T00:37:00.262Z,100316
2017-08-09T00:42:04.333Z,100309
2017-08-09T00:47:07.575Z,100301
2017-08-09T00:52:10.773Z,100317
2017-08-09T00:57:13.936Z,100323
2017-08-09T01:02:17.138Z,100314
2017-08-09T01:07:20.320Z,100336
2017-08-09T01:12:24.286Z,100341
2017-08-09T01:17:27.493Z,100347
2017-08-09T01:22:30.671Z,100348
2017-08-09T01:27:33.865Z,100353
2017-08-09T01:32:37.798Z,100363
2017-08-09T01:37:40.990Z,100363
2017-08-09T01:42:45.029Z,100370
2017-08-09T01:47:48.984Z,100384
2017-08-09T01:52:52.149Z,100381
2017-08-09T01:57:56.082Z,100375
2017-08-09T02:03:00.006Z,100349
2017-08-09T02:08:03.177Z,100352
2017-08-09T02:13:06.377Z,100338
2017-08-09T02:18:09.535Z,100349
2017-08-09T02:23:12.713Z,100362
2017-08-09T02:28:16.654Z,100369
2017-08-09T02:33:20.592Z,100369
2017-08-09T02:38:23.787Z,100377
2017-08-09T02:43:26.997Z,100376
2017-08-09T02:48:30.939Z,100375
2017-08-09T02:53:34.128Z,100370
2017-08-09T02:58:37.334Z,100376
2017-08-09T03:03:40.506Z,100378
2017-08-09T03:08:43.693Z,100379
2017-08-09T03:13:46.912Z,100383
2017-08-09T03:18:50.074Z,100378
2017-08-09T03:23:53.253Z,100384
2017-08-09T03:28:57.193Z,100386
2017-08-09T03:34:00.369Z,100392
2017-08-09T03:39:03.552Z,100395
2017-08-09T03:44:06.731Z,100390
2017-08-09T03:49:10.082Z,100390
2017-08-09T03:54:13.249Z,100397
2017-08-09T03:59:16.459Z,100398
2017-08-09T04:04:19.656Z,100404
2017-08-09T04:09:22.846Z,100421
2017-08-09T04:14:26.028Z,100427
2017-08-09T04:19:30.077Z,100448
2017-08-09T04:24:34.015Z,100443
2017-08-09T04:29:37.297Z,100456
2017-08-09T04:34:41.230Z,100463
2017-08-09T04:39:44.397Z,100468
2017-08-09T04:44:47.588Z,100482
2017-08-09T04:49:50.874Z,100480
2017-08-09T04:54:54.119Z,100483
2017-08-09T04:59:57.305Z,100484
2017-08-09T05:05:00.470Z,100484
2017-08-09T05:10:03.674Z,100494
2017-08-09T05:15:07.623Z,100489
2017-08-09T05:20:10.813Z,100492
2017-08-09T05:25:14.002Z,100502
2017-08-09T05:30:18.046Z,100505
2017-08-09T05:35:21.984Z,100503
2017-08-09T05:40:25.163Z,100513
2017-08-09T05:45:29.118Z,100499
2017-08-09T05:50:32.327Z,100513
2017-08-09T05:55:36.297Z,100519
2017-08-09T06:00:39.481Z,100520
2017-08-09T06:05:42.655Z,100527
2017-08-09T06:10:45.830Z,100531
2017-08-09T06:15:49.776Z,100523
2017-08-09T06:20:53.719Z,100523
2017-08-09T06:25:56.906Z,100534
2017-08-09T06:31:00.828Z,100518
2017-08-09T06:36:04.013Z,100530
2017-08-09T06:41:07.183Z,100529
2017-08-09T06:46:10.369Z,100536
2017-08-09T06:51:13.569Z,100545
2017-08-09T06:56:16.801Z,100534
2017-08-09T07:01:19.993Z,100542
2017-08-09T07:06:23.185Z,100561
2017-08-09T07:11:27.102Z,100570
2017-08-09T07:16:30.269Z,100571
2017-08-09T07:21:33.457Z,100590
2017-08-09T07:26:36.621Z,100577
2017-08-09T07:31:39.801Z,100589
2017-08-09T07:36:42.986Z,100572
2017-08-09T07:41:46.157Z,100565
2017-08-09T07:46:49.356Z,100573
2017-08-09T07:51:52.539Z,100555
2017-08-09T07:56:56.497Z,100571
2017-08-09T08:01:59.686Z,100577
2017-08-09T08:07:02.892Z,100586
2017-08-09T08:12:06.827Z,100580
2017-08-09T08:17:10.036Z,100604
2017-08-09T08:22:13.236Z,100596
2017-08-09T08:27:16.445Z,100591
2017-08-09T08:32:19.639Z,100592
2017-08-09T08:37:23.598Z,100601
2017-08-09T08:42:26.781Z,100598
2017-08-09T08:47:30.086Z,100609
2017-08-09T08:52:34.055Z,100595
2017-08-09T08:57:37.247Z,100594
2017-08-09T09:02:40.553Z,100599
2017-08-09T09:07:43.731Z,100604
2017-08-09T09:12:46.935Z,100590
2017-08-09T09:17:50.903Z,100594
2017-08-09T09:22:54.068Z,100586
2017-08-09T09:27:57.236Z,100591
2017-08-09T09:33:00.414Z,100582
2017-08-09T09:38:03.602Z,100586
2017-08-09T09:43:06.786Z,100576
2017-08-09T09:48:10.745Z,100582
2017-08-09T09:53:13.925Z,100581
2017-08-09T09:58:17.130Z,100586
2017-08-09T10:03:21.088Z,100577
2017-08-09T10:08:24.258Z,100570
2017-08-09T10:13:27.448Z,100562
2017-08-09T10:18:30.646Z,100553
2017-08-09T10:23:33.818Z,100550
2017-08-09T10:28:37.001Z,100545
2017-08-09T10:33:40.358Z,100554
2017-08-09T10:38:43.536Z,100553
2017-08-09T10:43:46.730Z,100550
2017-08-09T10:48:50.255Z,100555
2017-08-09T10:53:53.443Z,100555
2017-08-09T10:58:56.635Z,100558
2017-08-09T11:04:00.580Z,100566
2017-08-09T11:09:03.740Z,100569
2017-08-09T11:14:07.697Z,100561
2017-08-09T11:19:10.906Z,100566
2017-08-09T11:24:14.106Z,100570
2017-08-09T11:29:17.306Z,100571
2017-08-09T11:34:21.253Z,100577
2017-08-09T11:39:24.455Z,100588
2017-08-09T11:44:27.627Z,100573
2017-08-09T11:49:31.587Z,100586
2017-08-09T11:54:34.758Z,100577
2017-08-09T11:59:38.805Z,100590
2017-08-09T12:04:42.722Z,100577
2017-08-09T12:09:46.679Z,100568
2017-08-09T12:14:49.869Z,100572
2017-08-09T12:19:53.055Z,100574
2017-08-09T12:24:56.993Z,100577
2017-08-09T12:30:00.186Z,100566
2017-08-09T12:35:04.138Z,100558
2017-08-09T12:40:07.350Z,100554
2017-08-09T12:45:10.546Z,100562
2017-08-09T12:50:13.741Z,100553
2017-08-09T12:55:16.966Z,100559
2017-08-09T13:00:20.487Z,100564
2017-08-09T13:05:23.697Z,100562
2017-08-09T13:10:27.044Z,100554
2017-08-09T13:15:30.245Z,100551
2017-08-09T13:20:33.430Z,100543
2017-08-09T13:25:36.634Z,100538
2017-08-09T13:30:39.825Z,100540
2017-08-09T13:35:43.028Z,100529
2017-08-09T13:40:46.209Z,100527
2017-08-09T13:45:50.184Z,100519
2017-08-09T13:50:53.374Z,100523
2017-08-09T13:55:56.557Z,100526
2017-08-09T14:00:59.906Z,100538
2017-08-09T14:06:03.093Z,100538
2017-08-09T14:11:06.286Z,100541
2017-08-09T14:16:09.483Z,100536
2017-08-09T14:21:12.689Z,100536
2017-08-09T14:26:15.898Z,100522
2017-08-09T14:31:19.862Z,100524
2017-08-09T14:36:23.061Z,100530
2017-08-09T14:41:26.246Z,100518
2017-08-09T14:46:29.425Z,100519
2017-08-09T14:51:33.395Z,100516
2017-08-09T14:56:36.604Z,100507
2017-08-09T15:01:39.778Z,100508
2017-08-09T15:06:42.967Z,100502
2017-08-09T15:11:46.940Z,100494
2017-08-09T15:16:50.154Z,100510
2017-08-09T15:21:53.346Z,100498
2017-08-09T15:26:56.533Z,100505
2017-08-09T15:31:59.737Z,100506
2017-08-09T15:37:03.681Z,100513
2017-08-09T15:42:06.888Z,100508
2017-08-09T15:47:10.080Z,100507
2017-08-09T15:52:13.270Z,100511
2017-08-09T15:57:17.217Z,100515
2017-08-09T16:02:20.380Z,100506
2017-08-09T16:07:23.606Z,100504
2017-08-09T16:12:27.625Z,100508
2017-08-09T16:17:30.775Z,100512
2017-08-09T16:22:33.977Z,100509
2017-08-09T16:27:37.145Z,100501
2017-08-09T16:32:41.108Z,100497
2017-08-09T16:37:44.323Z,100503
2017-08-09T16:48:22.918Z,100504
2017-08-09T16:53:26.121Z,100503
2017-08-09T16:58:29.379Z,100510
2017-08-09T17:03:33.338Z,100511
2017-08-09T17:08:36.541Z,100513
2017-08-09T17:13:39.718Z,100500
2017-08-09T17:18:43.689Z,100502
2017-08-09T17:23:46.900Z,100491
2017-08-09T17:28:50.099Z,100490
2017-08-09T17:33:54.169Z,100479
2017-08-09T17:38:58.111Z,100485
2017-08-09T17:44:01.390Z,100475
2017-08-09T17:49:04.599Z,100485
2017-08-09T17:54:07.806Z,100482
2017-08-09T17:59:10.996Z,100490
2017-08-09T18:04:14.245Z,100480
2017-08-09T18:09:17.437Z,100494
2017-08-09T18:14:21.430Z,100492
2017-08-09T18:19:24.681Z,100491
2017-08-09T18:24:27.885Z,100507
2017-08-09T18:29:31.130Z,100497
2017-08-09T18:34:34.325Z,100502
2017-08-09T18:39:37.505Z,100496
2017-08-09T18:44:41.466Z,100500
2017-08-09T18:49:44.702Z,100506
2017-08-09T18:54:47.902Z,100508
2017-08-09T18:59:51.253Z,100503
2017-08-09T19:04:55.207Z,100510
2017-08-09T19:09:58.412Z,100521
2017-08-09T19:15:01.654Z,100519
2017-08-09T19:20:04.876Z,100524
2017-08-09T19:25:08.076Z,100526
2017-08-09T19:30:11.370Z,100508
2017-08-09T19:35:14.598Z,100500
2017-08-09T19:40:18.108Z,100497
2017-08-09T19:45:21.308Z,100499
2017-08-09T19:50:24.493Z,100512
2017-08-09T19:55:27.665Z,100522
2017-08-09T20:00:30.899Z,100520
2017-08-09T20:05:34.099Z,100523
2017-08-09T20:10:37.385Z,100528
2017-08-09T20:15:41.349Z,100532
2017-08-09T20:20:44.517Z,100538
2017-08-09T20:25:48.464Z,100540
2017-08-09T20:30:51.677Z,100536
2017-08-09T20:35:54.853Z,100543
2017-08-09T20:40:58.074Z,100552
2017-08-09T20:46:02.027Z,100567
2017-08-09T20:51:05.195Z,100569
2017-08-09T20:56:08.420Z,100569
2017-08-09T21:01:11.615Z,100568
2017-08-09T21:06:14.793Z,100572
2017-08-09T21:11:18.762Z,100570
2017-08-09T21:16:21.981Z,100586
2017-08-09T21:21:25.154Z,100605
2017-08-09T21:26:28.434Z,100608
2017-08-09T21:31:32.394Z,100637
2017-08-09T21:36:35.691Z,100650
2017-08-09T21:41:39.718Z,100652
2017-08-09T21:46:43.654Z,100656
2017-08-09T21:51:46.842Z,100650
2017-08-09T21:56:50.799Z,100660
2017-08-09T22:01:53.949Z,100673
2017-08-09T22:06:57.161Z,100688
2017-08-09T22:12:01.136Z,100700
2017-08-09T22:17:04.308Z,100709
2017-08-09T22:22:08.317Z,100705
2017-08-09T22:27:12.270Z,100704
2017-08-09T22:32:15.472Z,100730
2017-08-09T22:37:18.749Z,100754
2017-08-09T22:42:21.936Z,100747
2017-08-09T22:47:25.213Z,100747
2017-08-09T22:52:28.399Z,100739
2017-08-09T22:57:32.353Z,100737
2017-08-09T23:02:35.634Z,100732
2017-08-09T23:07:39.626Z,100727
2017-08-09T23:12:42.815Z,100734
2017-08-09T23:17:46.016Z,100726
2017-08-09T23:22:49.190Z,100721
2017-08-09T23:27:52.369Z,100731
2017-08-09T23:32:56.317Z,100726
2017-08-09T23:37:59.516Z,100730
2017-08-09T23:43:03.440Z,100705
2017-08-09T23:48:06.629Z,100688
2017-08-09T23:53:10.601Z,100674
2017-08-09T23:58:13.771Z,100676
